Terminal Aerodrome Forecast
Issued by NWS Bismarck, ND

Home | Current Version | Previous Version | Text Only | Print | Product List | Glossary On
Versions: 1 2 3 4 5 6 7 8 9 10 11 12 13 14 15 16 17
000
FTUS43 KBIS 201300 AAA
TAFISN
TAF AMD
KISN 201340Z 2014/2112 33013KT P6SM VCSH SCT040 BKN060
     FM201600 32022G32KT P6SM SCT060
     FM210000 31009KT P6SM SKC=

USA.gov is the U.S. government's official web portal to all federal, state and local government web resources and services.